Saint Michaels, Arizona
Current Conditions -  °F | °C
As of 12:53 PM on Thursday 18 Dec 2014 (Local Time) from KRQE Reporting Station
Broken Clouds Broken Clouds  
Wind Chill: 38°   Ceiling: 11000
Heat Index: 38°   Visibility: 10mi
Dew Point: 27°   Wind: 3mph
Humidity: 65%   Direction: NA
Pressure: 30.1"   Gusts: NA
Location:  35.64°N, 109.1°W
Report Text: KRQE 181953Z AUTO VRB03KT 10SM FEW080 BKN110 03/M03 A3010 RMK AO2 SLP173 T00331028 TSNO
Loading
Personal Weather Stations






























Interactive Weather Map New forecast layout! Learn more

10-Day Weather Forecast

Advertisements
Track Severe Weather on mobile